Time;durP1;ratioP1;P1;durP2;ratioP2;P2;SDS_P1;SDS_P2;PMS_P1;PMS_P2;Temp;Humidity;BMP_temperature;BMP_pressure;BME280_temperature;BME280_humidity;BME280_pressure;Samples;Min_cycle;Max_cycle;Signal;HPM_P1;HPM_P2
2021/08/07 00:00:22;;;;;;;0.40;0.10;;;;;;;16.41;76.09;99230.00;126527;1090;114084;-70
2021/08/07 00:02:49;;;;;;;0.40;0.10;;;;;;;16.37;75.97;99234.75;126549;1090;102910;-70
2021/08/07 00:05:17;;;;;;;0.40;0.10;;;;;;;16.40;76.08;99229.16;126430;1093;114562;-70
2021/08/07 00:07:44;;;;;;;0.40;0.10;;;;;;;16.37;75.69;99226.69;126550;1090;102925;-70
2021/08/07 00:10:12;;;;;;;0.40;0.10;;;;;;;16.38;75.86;99236.45;126496;1089;104041;-70
2021/08/07 00:12:39;;;;;;;0.40;0.10;;;;;;;16.38;75.85;99236.45;126486;1090;113916;-70
2021/08/07 00:15:07;;;;;;;0.40;0.10;;;;;;;16.44;75.69;99236.03;126520;1090;102959;-71
2021/08/07 00:17:35;;;;;;;0.40;0.10;;;;;;;16.48;75.71;99234.84;126472;1088;113945;-70
2021/08/07 00:20:04;;;;;;;0.40;0.10;;;;;;;16.43;75.41;99247.73;126562;1091;103408;-70
2021/08/07 00:22:31;;;;;;;0.40;0.10;;;;;;;16.43;75.29;99247.73;126376;1090;102919;-70
2021/08/07 00:24:58;;;;;;;0.40;0.10;;;;;;;16.40;75.67;99249.80;126488;1090;113881;-69
2021/08/07 00:27:25;;;;;;;0.40;0.10;;;;;;;16.37;75.79;99248.19;126429;1090;103048;-69
2021/08/07 00:29:52;;;;;;;0.40;0.10;;;;;;;16.32;75.57;99253.02;126374;1089;113986;-70
2021/08/07 00:32:20;;;;;;;0.40;0.10;;;;;;;16.35;75.80;99252.79;126511;1089;103030;-70
2021/08/07 00:34:47;;;;;;;0.40;0.10;;;;;;;16.30;75.31;99258.49;126374;1088;114219;-70
2021/08/07 00:37:14;;;;;;;0.40;0.10;;;;;;;16.29;75.35;99263.98;126494;1089;102891;-70
2021/08/07 00:39:41;;;;;;;0.40;0.10;;;;;;;16.20;75.66;99254.70;126450;1090;103149;-70
2021/08/07 00:42:08;;;;;;;0.40;0.10;;;;;;;16.26;75.58;99261.48;126409;1089;113976;-70
2021/08/07 00:44:35;;;;;;;0.40;0.10;;;;;;;16.26;75.55;99264.16;126460;1092;103126;-70
2021/08/07 00:47:03;;;;;;;0.40;0.10;;;;;;;16.20;75.36;99268.98;126399;1088;114172;-70
2021/08/07 00:49:30;;;;;;;0.40;0.10;;;;;;;16.17;75.27;99274.58;126495;1090;103031;-68
2021/08/07 00:51:57;;;;;;;0.40;0.10;;;;;;;16.19;75.46;99275.34;126346;1090;103042;-69
2021/08/07 00:54:24;;;;;;;0.40;0.10;;;;;;;16.23;75.57;99272.44;126431;1090;113940;-70
2021/08/07 00:56:51;;;;;;;0.40;0.10;;;;;;;16.27;75.35;99280.17;126490;1090;102981;-70
2021/08/07 00:59:19;;;;;;;0.40;0.10;;;;;;;16.27;75.15;99272.11;126394;1087;114170;-70
2021/08/07 01:01:52;;;;;;;0.40;0.10;;;;;;;16.28;74.91;99281.05;126490;1090;103028;-70
2021/08/07 01:04:21;;;;;;;0.40;0.10;;;;;;;16.23;74.89;99283.19;126480;1088;102901;-68
2021/08/07 01:07:13;;;;;;;0.40;0.10;;;;;;;16.14;74.71;99280.17;126429;1090;114013;-71
2021/08/07 01:09:47;;;;;;;0.40;0.10;;;;;;;16.13;74.98;99291.87;126500;1089;102900;-68
2021/08/07 01:12:26;;;;;;;0.40;0.10;;;;;;;16.13;74.47;99299.92;126407;1090;113930;-69
2021/08/07 01:14:57;;;;;;;0.40;0.20;;;;;;;16.10;74.76;99294.77;126538;1090;103351;-71
2021/08/07 01:17:27;;;;;;;0.40;0.10;;;;;;;16.00;74.80;99296.34;126378;1090;113994;-70
2021/08/07 01:20:10;;;;;;;0.40;0.20;;;;;;;15.96;74.99;99294.83;126554;1090;103066;-70
2021/08/07 01:23:01;;;;;;;0.40;0.10;;;;;;;16.04;75.08;99287.96;126393;1090;114117;-70
2021/08/07 01:25:44;;;;;;;0.40;0.10;;;;;;;16.09;74.58;99295.73;126455;1090;104580;-69
2021/08/07 01:28:12;;;;;;;0.40;0.10;;;;;;;16.11;74.56;99293.78;126533;1089;102878;-70
2021/08/07 01:30:39;;;;;;;0.40;0.10;;;;;;;16.11;74.84;99299.16;126413;1090;114747;-70
2021/08/07 01:33:06;;;;;;;0.40;0.10;;;;;;;16.14;74.74;99296.28;126503;1090;102869;-70
2021/08/07 01:35:34;;;;;;;0.40;0.20;;;;;;;16.17;74.19;99295.22;126536;1090;113927;-70
2021/08/07 01:38:01;;;;;;;0.40;0.20;;;;;;;16.19;74.35;99290.59;126536;1090;102903;-70
2021/08/07 01:40:28;;;;;;;0.40;0.20;;;;;;;16.26;74.19;99296.41;126576;1089;103025;-70
2021/08/07 01:42:55;;;;;;;0.40;0.10;;;;;;;16.25;74.08;99295.55;126461;1090;113766;-70
2021/08/07 01:45:22;;;;;;;0.40;0.10;;;;;;;16.23;73.97;99300.16;126558;1090;103619;-70
2021/08/07 01:47:58;;;;;;;0.40;0.10;;;;;;;16.19;73.87;99298.64;126517;1088;113939;-70
2021/08/07 01:50:30;;;;;;;0.40;0.10;;;;;;;16.20;74.22;99301.22;126543;1090;102895;-70
2021/08/07 01:53:08;;;;;;;0.40;0.10;;;;;;;16.27;74.00;99300.82;126475;1090;114361;-70
2021/08/07 01:55:43;;;;;;;0.40;0.10;;;;;;;16.22;73.71;99295.77;126573;1090;103028;-70
2021/08/07 01:58:14;;;;;;;0.40;0.10;;;;;;;16.24;73.93;99304.57;126563;1089;103047;-70
2021/08/07 02:00:42;;;;;;;0.40;0.10;;;;;;;16.20;74.28;99301.22;126513;1090;114281;-70
2021/08/07 02:03:09;;;;;;;0.40;0.10;;;;;;;16.22;74.11;99306.52;126511;1090;102895;-70
2021/08/07 02:05:38;;;;;;;0.40;0.10;;;;;;;16.26;73.86;99309.84;126503;1090;113981;-70
2021/08/07 02:08:07;;;;;;;0.40;0.10;;;;;;;16.26;73.73;99302.66;126660;1089;102985;-70
2021/08/07 02:10:35;;;;;;;0.40;0.10;;;;;;;16.27;73.68;99308.88;126622;1090;102874;-70
2021/08/07 02:13:03;;;;;;;0.40;0.10;;;;;;;16.30;73.80;99311.34;126525;1090;113803;-70
2021/08/07 02:15:32;;;;;;;0.40;0.10;;;;;;;16.35;72.89;99312.78;126570;1090;102870;-70
2021/08/07 02:18:00;;;;;;;0.40;0.10;;;;;;;16.34;73.51;99311.05;126525;1089;113933;-69
2021/08/07 02:20:28;;;;;;;0.40;0.10;;;;;;;16.36;73.16;99314.48;126516;1090;103403;-70
2021/08/07 02:22:55;;;;;;;0.40;0.10;;;;;;;16.35;72.93;99310.09;126409;1093;114207;-69
2021/08/07 02:25:23;;;;;;;0.40;0.10;;;;;;;16.33;73.07;99319.22;126567;1090;103174;-70
2021/08/07 02:28:15;;;;;;;0.40;0.10;;;;;;;16.27;73.24;99323.16;91673;1092;20001649;-69
2021/08/07 02:30:42;;;;;;;0.40;0.10;;;;;;;16.35;73.37;99328.91;56553;1090;20095823;-69
2021/08/07 02:33:10;;;;;;;0.40;0.10;;;;;;;16.41;73.15;99334.80;126533;1090;103022;-69
2021/08/07 02:35:37;;;;;;;0.40;0.10;;;;;;;16.40;73.04;99328.58;126439;1090;114215;-69
2021/08/07 02:38:05;;;;;;;0.40;0.10;;;;;;;16.41;73.01;99332.99;126577;1091;103103;-69
2021/08/07 02:40:33;;;;;;;0.40;0.20;;;;;;;16.40;73.15;99327.73;126514;1090;102887;-69
2021/08/07 02:43:00;;;;;;;0.40;0.10;;;;;;;16.46;73.06;99333.55;126514;1090;114001;-70
2021/08/07 02:45:28;;;;;;;0.40;0.10;;;;;;;16.42;72.81;99340.09;126590;1090;102874;-70
2021/08/07 02:47:55;;;;;;;0.40;0.10;;;;;;;16.36;73.00;99345.88;126438;1090;114415;-69
2021/08/07 02:50:22;;;;;;;0.40;0.10;;;;;;;16.37;73.05;99337.70;126557;1089;103025;-70
2021/08/07 02:52:50;;;;;;;0.40;0.10;;;;;;;16.38;72.97;99341.24;126534;1090;102936;-70
2021/08/07 02:55:17;;;;;;;0.40;0.10;;;;;;;16.35;72.95;99354.89;126504;1090;114241;-69
2021/08/07 02:57:44;;;;;;;0.40;0.20;;;;;;;16.34;73.08;99347.79;126572;1088;102970;-69
2021/08/07 03:00:12;;;;;;;0.40;0.10;;;;;;;16.36;73.01;99352.09;126495;1090;114158;-70
2021/08/07 03:02:39;;;;;;;0.40;0.10;;;;;;;16.36;72.79;99352.09;126665;1089;103051;-70
2021/08/07 03:05:08;;;;;;;0.40;0.10;;;;;;;16.43;73.13;99362.45;126595;1089;103045;-69
2021/08/07 03:07:35;;;;;;;0.40;0.10;;;;;;;16.47;72.47;99358.59;126596;1090;113728;-69
2021/08/07 03:10:08;;;;;;;0.40;0.10;;;;;;;16.45;72.55;99366.75;126577;1088;102873;-70
2021/08/07 03:12:36;;;;;;;0.40;0.10;;;;;;;16.47;72.17;99366.64;126483;1090;114218;-68
2021/08/07 03:15:05;;;;;;;0.40;0.20;;;;;;;16.43;72.30;99365.13;126705;1089;102978;-70
2021/08/07 03:17:32;;;;;;;0.40;0.20;;;;;;;16.50;72.59;99372.69;126594;1088;114257;-70
2021/08/07 03:20:00;;;;;;;0.40;0.20;;;;;;;16.53;72.42;99376.99;126616;1090;102953;-70
2021/08/07 03:22:27;;;;;;;0.40;0.10;;;;;;;16.43;71.87;99363.30;126506;1090;103055;-70
2021/08/07 03:24:54;;;;;;;0.40;0.18;;;;;;;16.42;71.93;99371.47;126473;1088;113947;-70
2021/08/07 03:27:21;;;;;;;0.40;0.20;;;;;;;16.35;72.28;99376.39;126561;1090;103361;-69
2021/08/07 03:29:49;;;;;;;0.40;0.10;;;;;;;16.29;71.99;99376.82;126414;1090;114151;-70
2021/08/07 03:32:16;;;;;;;0.40;0.10;;;;;;;16.28;72.38;99372.41;126527;1090;103022;-70
2021/08/07 03:34:44;;;;;;;0.40;0.10;;;;;;;16.27;72.38;99384.95;126551;1090;103026;-70
2021/08/07 03:37:11;;;;;;;0.40;0.10;;;;;;;16.21;72.33;99385.38;126475;1090;114027;-70
2021/08/07 03:39:39;;;;;;;0.40;0.10;;;;;;;16.20;72.77;99381.81;126534;1089;103013;-70
2021/08/07 03:42:06;;;;;;;0.40;0.13;;;;;;;16.18;72.70;99380.19;126498;1088;114412;-70
2021/08/07 03:44:34;;;;;;;0.40;0.10;;;;;;;16.19;73.02;99385.48;126541;1090;102895;-69
2021/08/07 03:47:01;;;;;;;0.40;0.10;;;;;;;16.19;73.07;99389.98;126585;1090;102910;-70
2021/08/07 03:49:28;;;;;;;0.40;0.20;;;;;;;16.29;72.77;99387.57;126458;1089;113922;-69
2021/08/07 03:51:55;;;;;;;0.40;0.20;;;;;;;16.25;72.57;99399.45;126497;1093;102958;-70
2021/08/07 03:54:22;;;;;;;0.40;0.10;;;;;;;16.23;72.77;99387.97;126517;1090;113884;-70
2021/08/07 03:56:49;;;;;;;0.40;0.10;;;;;;;16.32;72.84;99388.20;126530;1090;102876;-69
2021/08/07 03:59:16;;;;;;;0.40;0.10;;;;;;;16.36;72.14;99397.78;126413;1090;114088;-69
2021/08/07 04:01:44;;;;;;;0.40;0.10;;;;;;;16.41;72.57;99388.55;126550;1092;102999;-69
2021/08/07 04:04:11;;;;;;;0.40;0.20;;;;;;;16.38;72.13;99392.30;126545;1090;103028;-69
2021/08/07 04:06:38;;;;;;;0.40;0.13;;;;;;;16.43;72.39;99400.07;126416;1090;113914;-70
2021/08/07 04:09:05;;;;;;;0.40;0.20;;;;;;;16.38;72.00;99403.05;126544;1088;103701;-70
2021/08/07 04:11:32;;;;;;;0.40;0.15;;;;;;;16.40;72.36;99401.13;126498;1090;114534;-70
2021/08/07 04:13:59;;;;;;;0.40;0.10;;;;;;;16.38;71.89;99409.30;126613;1090;102972;-70
2021/08/07 04:16:28;;;;;;;0.40;0.20;;;;;;;16.31;71.38;99404.43;126650;1090;102866;-70
2021/08/07 04:18:56;;;;;;;0.40;0.10;;;;;;;16.27;71.29;99402.91;126476;1089;113908;-69
2021/08/07 04:21:23;;;;;;;0.40;0.10;;;;;;;16.30;71.77;99405.39;126590;1090;103037;-69
2021/08/07 04:23:50;;;;;;;0.40;0.20;;;;;;;16.31;71.32;99407.97;126477;1090;114213;-69
2021/08/07 04:26:17;;;;;;;0.40;0.10;;;;;;;16.25;71.62;99403.02;126591;1089;102894;-69
2021/08/07 04:28:44;;;;;;;0.40;0.20;;;;;;;16.22;71.21;99400.55;126523;1088;102874;-69
2021/08/07 04:31:12;;;;;;;0.40;0.20;;;;;;;16.17;71.29;99402.67;126491;1090;113891;-69
2021/08/07 04:33:39;;;;;;;0.40;0.20;;;;;;;16.19;71.46;99403.41;126534;1092;102887;-69
2021/08/07 04:36:06;;;;;;;0.40;0.20;;;;;;;16.16;71.52;99415.22;126416;1090;113370;-69
2021/08/07 04:38:34;;;;;;;0.40;0.20;;;;;;;16.18;71.33;99407.05;126587;1090;103048;-69
2021/08/07 04:41:01;;;;;;;0.40;0.20;;;;;;;16.21;71.06;99412.25;126600;1089;102903;-69
2021/08/07 04:43:29;;;;;;;0.40;0.20;;;;;;;16.25;70.77;99423.63;126611;1090;113830;-69
2021/08/07 04:45:56;;;;;;;0.40;0.20;;;;;;;16.27;70.59;99417.20;126588;1090;102933;-70
2021/08/07 04:48:23;;;;;;;0.40;0.20;;;;;;;16.29;71.37;99425.19;126456;1091;113963;-69
2021/08/07 04:50:50;;;;;;;0.40;0.20;;;;;;;16.33;70.78;99429.39;126619;1090;102876;-69
2021/08/07 04:53:18;;;;;;;0.40;0.20;;;;;;;16.35;71.33;99430.13;126540;1089;114413;-69
2021/08/07 04:55:45;;;;;;;0.40;0.20;;;;;;;16.37;70.09;99433.59;126631;1089;103016;-69
2021/08/07 04:58:14;;;;;;;0.40;0.20;;;;;;;16.30;70.43;99435.83;126567;1088;103387;-69
2021/08/07 05:00:44;;;;;;;0.40;0.20;;;;;;;16.30;70.48;99430.45;126523;1088;114181;-69
2021/08/07 05:03:12;;;;;;;0.40;0.20;;;;;;;16.38;70.75;99429.92;126640;1092;103027;-69
2021/08/07 05:05:39;;;;;;;0.40;0.20;;;;;;;16.43;70.28;99429.63;126479;1090;114220;-69
2021/08/07 05:08:06;;;;;;;0.40;0.10;;;;;;;16.38;69.73;99424.55;126653;1089;103104;-70
2021/08/07 05:10:33;;;;;;;0.40;0.20;;;;;;;16.34;69.96;99425.72;126598;1089;103199;-69
2021/08/07 05:13:00;;;;;;;0.40;0.20;;;;;;;16.35;69.96;99422.07;126567;1089;113962;-69
2021/08/07 05:15:27;;;;;;;0.40;0.20;;;;;;;16.33;69.67;99421.33;126607;1088;103033;-69
2021/08/07 05:17:55;;;;;;;0.40;0.20;;;;;;;16.37;70.13;99423.70;126484;1090;114553;-69
2021/08/07 05:20:22;;;;;;;0.40;0.10;;;;;;;16.40;69.59;99428.00;126582;1090;103023;-69
2021/08/07 05:22:49;;;;;;;0.40;0.20;;;;;;;16.42;69.49;99431.47;126632;1089;102900;-69
2021/08/07 05:25:16;;;;;;;0.40;0.20;;;;;;;16.44;69.77;99439.42;126605;1090;114000;-69
2021/08/07 05:27:43;;;;;;;0.40;0.20;;;;;;;16.52;70.07;99442.45;126557;1089;102874;-69
2021/08/07 05:30:12;;;;;;;0.40;0.10;;;;;;;16.57;69.74;99439.45;126464;1088;113957;-67
2021/08/07 05:32:39;;;;;;;0.40;0.13;;;;;;;16.65;70.21;99434.45;126652;1090;102894;-70
2021/08/07 05:35:07;;;;;;;0.40;0.20;;;;;;;16.71;69.70;99436.70;126577;1089;102976;-69
2021/08/07 05:37:41;;;;;;;0.40;0.20;;;;;;;16.72;69.42;99433.06;126554;1090;113989;-69
2021/08/07 05:40:10;;;;;;;0.40;0.10;;;;;;;16.72;68.87;99441.97;126604;1088;102913;-69
2021/08/07 05:42:37;;;;;;;0.40;0.10;;;;;;;16.79;69.42;99441.56;126546;1088;113989;-69
2021/08/07 05:45:05;;;;;;;0.40;0.20;;;;;;;16.81;69.05;99445.03;126604;1090;102959;-69
2021/08/07 05:47:33;;;;;;;0.40;0.10;;;;;;;16.85;69.09;99439.33;126489;1090;114129;-69
2021/08/07 05:50:00;;;;;;;0.40;0.20;;;;;;;16.96;69.20;99437.77;126619;1089;103023;-70
2021/08/07 05:52:27;;;;;;;0.40;0.10;;;;;;;17.04;69.23;99440.80;126533;1089;103016;-70
2021/08/07 05:54:56;;;;;;;0.40;0.20;;;;;;;16.99;67.89;99441.13;126524;1088;113976;-69
2021/08/07 05:57:24;;;;;;;0.40;0.20;;;;;;;17.06;68.63;99444.25;126589;1092;103027;-69
2021/08/07 05:59:51;;;;;;;0.40;0.10;;;;;;;17.08;68.15;99439.61;126481;1090;114664;-69
2021/08/07 06:02:18;;;;;;;0.40;0.10;;;;;;;17.16;69.08;99448.01;126589;1090;103174;-70
2021/08/07 06:04:45;;;;;;;0.40;0.10;;;;;;;17.20;69.21;99449.52;126573;1089;103329;-69
2021/08/07 06:07:12;;;;;;;0.40;0.18;;;;;;;17.32;68.85;99449.65;126513;1090;113994;-69
2021/08/07 06:09:40;;;;;;;0.40;0.10;;;;;;;17.46;69.32;99446.86;126578;1089;103026;-69
2021/08/07 06:12:07;;;;;;;0.40;0.10;;;;;;;17.53;68.06;99449.98;126430;1088;113984;-69
2021/08/07 06:14:34;;;;;;;0.40;0.10;;;;;;;17.58;67.88;99455.02;126604;1090;102879;-69
2021/08/07 06:17:02;;;;;;;0.40;0.10;;;;;;;17.60;67.54;99453.09;126544;1089;102879;-69
2021/08/07 06:19:29;;;;;;;0.40;0.10;;;;;;;17.61;66.82;99455.67;126492;1090;115046;-69
2021/08/07 06:21:56;;;;;;;0.40;0.10;;;;;;;17.66;67.05;99458.91;126679;1089;102900;-69
2021/08/07 06:24:27;;;;;;;0.40;0.10;;;;;;;17.73;67.20;99464.72;126527;1089;114308;-69
2021/08/07 06:26:54;;;;;;;0.40;0.10;;;;;;;17.75;66.64;99465.45;126649;1089;102979;-69
2021/08/07 06:29:22;;;;;;;0.40;0.10;;;;;;;17.81;66.07;99477.64;126426;1093;114203;-69
2021/08/07 06:31:49;;;;;;;0.40;0.10;;;;;;;17.86;65.59;99480.84;126569;1088;103046;-69
2021/08/07 06:34:16;;;;;;;0.40;0.10;;;;;;;17.88;65.50;99476.22;126542;1088;102910;-69
2021/08/07 06:36:43;;;;;;;0.40;0.10;;;;;;;17.95;65.84;99482.06;126518;1089;113986;-69
2021/08/07 06:39:10;;;;;;;0.40;0.10;;;;;;;17.98;64.47;99480.02;126604;1090;103020;-69
2021/08/07 06:41:37;;;;;;;0.40;0.10;;;;;;;18.04;65.23;99481.39;126563;1090;114217;-69
2021/08/07 06:44:04;;;;;;;0.40;0.10;;;;;;;18.13;64.90;99486.13;126699;1090;102962;-69
2021/08/07 06:46:32;;;;;;;0.40;0.20;;;;;;;18.23;64.73;99489.00;126582;1089;103380;-69
2021/08/07 06:48:59;;;;;;;0.40;0.10;;;;;;;18.35;65.36;99481.84;126533;1091;114005;-69
2021/08/07 06:51:26;;;;;;;0.40;0.10;;;;;;;18.48;65.37;99482.66;126594;1088;102903;-69
2021/08/07 06:53:53;;;;;;;0.40;0.10;;;;;;;18.54;63.90;99479.52;126488;1089;114490;-69
2021/08/07 06:56:20;;;;;;;0.40;0.10;;;;;;;18.56;62.69;99476.70;126631;1092;102905;-70
2021/08/07 06:58:48;;;;;;;0.40;0.10;;;;;;;18.60;62.48;99480.05;126603;1090;103057;-69
2021/08/07 07:01:15;;;;;;;0.40;0.10;;;;;;;18.62;61.67;99478.95;126466;1090;113946;-69
2021/08/07 07:03:42;;;;;;;0.40;0.10;;;;;;;18.61;60.89;99479.92;126561;1090;102885;-69
2021/08/07 07:06:09;;;;;;;0.40;0.10;;;;;;;18.62;60.84;99480.77;126478;1089;113987;-70
2021/08/07 07:08:36;;;;;;;0.40;0.10;;;;;;;18.66;62.09;99482.27;126558;1090;102878;-71
2021/08/07 07:11:04;;;;;;;0.40;0.10;;;;;;;18.81;62.01;99469.48;126644;1088;102971;-71
2021/08/07 07:13:31;;;;;;;0.40;0.10;;;;;;;18.92;62.22;99472.24;126571;1090;113853;-71
2021/08/07 07:15:59;;;;;;;0.40;0.10;;;;;;;19.08;61.29;99471.08;126549;1089;103519;-71
2021/08/07 07:18:26;;;;;;;0.40;0.10;;;;;;;19.10;58.56;99469.98;126495;1092;113975;-71
2021/08/07 07:20:53;;;;;;;0.40;0.10;;;;;;;19.12;57.52;99462.62;126616;1090;103057;-71
2021/08/07 07:23:20;;;;;;;0.40;0.10;;;;;;;19.19;58.57;99468.41;126365;1090;114190;-71
2021/08/07 07:25:49;;;;;;;0.40;0.10;;;;;;;19.25;59.77;99465.23;126429;1090;102968;-71
2021/08/07 07:28:16;;;;;;;0.40;0.10;;;;;;;19.31;59.33;99474.69;126383;1089;102877;-70
2021/08/07 07:30:43;;;;;;;0.40;0.10;;;;;;;19.44;60.69;99467.35;126324;1090;114697;-70
2021/08/07 07:33:12;;;;;;;0.40;0.10;;;;;;;19.53;60.29;99479.28;126446;1088;103176;-71
2021/08/07 07:35:39;;;;;;;0.40;0.10;;;;;;;19.57;55.07;99485.28;126376;1090;114134;-71
2021/08/07 07:38:07;;;;;;;0.40;0.10;;;;;;;19.59;56.06;99477.94;126452;1089;102883;-71
2021/08/07 07:40:34;;;;;;;0.40;0.10;;;;;;;19.60;55.56;99480.51;126411;1089;102959;-71
2021/08/07 07:43:02;;;;;;;0.40;0.10;;;;;;;19.65;56.60;99480.16;126343;1090;113998;-71
2021/08/07 07:45:29;;;;;;;0.40;0.10;;;;;;;19.72;56.55;99486.78;126341;1090;103033;-71
2021/08/07 07:47:58;;;;;;;0.40;0.10;;;;;;;19.76;56.22;99487.41;126126;1090;114052;-69
2021/08/07 07:50:25;;;;;;;0.40;0.10;;;;;;;19.84;55.95;99480.42;126260;1090;105951;-69
2021/08/07 07:52:52;;;;;;;0.40;0.10;;;;;;;19.95;56.78;99489.53;126216;1090;102984;-70
2021/08/07 07:55:19;;;;;;;0.40;0.10;;;;;;;20.06;56.10;99489.54;126148;1089;113929;-70
2021/08/07 07:57:46;;;;;;;0.40;0.10;;;;;;;20.13;56.60;99493.45;126169;1089;103269;-71
2021/08/07 08:00:14;;;;;;;0.40;0.10;;;;;;;20.26;57.81;99489.75;126150;1090;113919;-70
2021/08/07 08:02:41;;;;;;;0.40;0.10;;;;;;;20.42;58.51;99495.64;126213;1090;102993;-70
2021/08/07 08:05:09;;;;;;;0.40;0.10;;;;;;;20.54;56.14;99499.19;126210;1092;103176;-71
2021/08/07 08:07:41;;;;;;;0.40;0.10;;;;;;;20.61;53.29;99496.83;126265;1090;113672;-71
2021/08/07 08:10:11;;;;;;;0.40;0.10;;;;;;;20.68;54.53;99506.98;126557;1090;102889;-71
2021/08/07 08:12:39;;;;;;;0.40;0.10;;;;;;;20.76;53.71;99503.69;126415;1090;113934;-71
2021/08/07 08:15:07;;;;;;;0.40;0.10;;;;;;;20.76;53.08;99498.27;126367;1090;103055;-71
2021/08/07 08:17:35;;;;;;;0.40;0.10;;;;;;;20.82;54.94;99499.59;126205;1090;114070;-71
2021/08/07 08:20:03;;;;;;;0.40;0.10;;;;;;;20.92;53.86;99507.82;126515;1090;102974;-71
2021/08/07 08:22:31;;;;;;;0.40;0.10;;;;;;;20.97;52.34;99505.59;126550;1090;102898;-71
2021/08/07 08:24:58;;;;;;;0.40;0.10;;;;;;;21.03;52.69;99503.23;126430;1090;113921;-71
2021/08/07 08:27:26;;;;;;;0.40;0.10;;;;;;;21.12;52.68;99501.57;126536;1090;103064;-71
2021/08/07 08:29:53;;;;;;;0.40;0.10;;;;;;;21.24;53.63;99515.06;126386;1090;114353;-71
2021/08/07 08:32:20;;;;;;;0.40;0.10;;;;;;;21.32;53.00;99510.70;126343;1090;102910;-71
2021/08/07 08:34:47;;;;;;;0.40;0.10;;;;;;;21.42;53.02;99510.78;126437;1090;103071;-71
2021/08/07 08:37:14;;;;;;;0.40;0.10;;;;;;;21.58;53.86;99504.93;126199;1090;114067;-71
2021/08/07 08:39:41;;;;;;;0.40;0.10;;;;;;;21.73;53.02;99508.15;126438;1090;103338;-71
2021/08/07 08:42:09;;;;;;;0.40;0.10;;;;;;;21.84;53.20;99515.33;126352;1092;113958;-71
2021/08/07 08:44:36;;;;;;;0.40;0.10;;;;;;;21.97;51.83;99515.13;126507;1090;102974;-71
2021/08/07 08:47:03;;;;;;;0.40;0.10;;;;;;;22.05;52.14;99524.27;126451;1089;102866;-71
2021/08/07 08:49:31;;;;;;;0.40;0.10;;;;;;;22.21;52.49;99517.50;126501;1089;113747;-71
2021/08/07 08:52:01;;;;;;;0.40;0.10;;;;;;;22.36;51.24;99523.43;126504;1090;102905;-71
2021/08/07 08:54:28;;;;;;;0.40;0.10;;;;;;;22.44;53.20;99531.73;126407;1088;114070;-71
2021/08/07 08:56:55;;;;;;;0.40;0.10;;;;;;;22.54;50.36;99537.20;126487;1091;102900;-71
2021/08/07 08:59:24;;;;;;;0.40;0.10;;;;;;;22.65;49.73;99542.50;126313;1090;114231;-71
2021/08/07 09:01:52;;;;;;;0.40;0.10;;;;;;;22.78;49.67;99546.80;126527;1090;103037;-71
2021/08/07 09:04:19;;;;;;;0.40;0.00;;;;;;;22.91;49.90;99547.39;126480;1090;103028;-71
2021/08/07 09:06:46;;;;;;;0.40;0.10;;;;;;;23.11;50.87;99542.87;126395;1090;113928;-71
2021/08/07 09:09:14;;;;;;;0.40;0.10;;;;;;;23.19;49.79;99545.75;126332;1090;103322;-72
2021/08/07 09:11:53;;;;;;;0.40;0.10;;;;;;;23.36;49.94;99549.59;126190;1090;114150;-72
2021/08/07 09:14:30;;;;;;;0.40;0.10;;;;;;;23.46;48.84;99543.29;126398;1088;103547;-72
2021/08/07 09:17:04;;;;;;;0.40;0.10;;;;;;;23.66;49.35;99541.43;126357;1090;102985;-72
2021/08/07 09:19:41;;;;;;;0.40;0.10;;;;;;;23.86;48.17;99542.23;126291;1090;114119;-70
2021/08/07 09:22:29;;;;;;;0.40;0.10;;;;;;;24.23;47.61;99537.83;126422;1090;103039;-71
2021/08/07 09:25:05;;;;;;;0.40;0.10;;;;;;;24.82;46.86;99539.26;126261;1089;113935;-70
2021/08/07 09:27:41;;;;;;;0.40;0.00;;;;;;;25.71;44.58;99531.19;126993;1090;104958;-71
2021/08/07 09:30:17;;;;;;;0.40;0.00;;;;;;;26.98;40.82;99536.95;126431;1090;113266;-71
2021/08/07 09:32:49;;;;;;;0.40;0.03;;;;;;;28.13;40.21;99533.34;126302;1090;103002;-70
2021/08/07 09:35:23;;;;;;;0.40;0.00;;;;;;;29.33;38.57;99540.45;126310;1090;114290;-71
2021/08/07 09:38:32;;;;;;;0.40;0.00;;;;;;;30.03;33.77;99538.47;126332;1090;103233;-70
2021/08/07 09:41:01;;;;;;;0.40;0.00;;;;;;;30.80;33.07;99544.56;126030;1093;103041;-70
2021/08/07 09:43:32;;;;;;;0.40;0.00;;;;;;;31.38;31.22;99544.58;126034;1093;114082;-70
2021/08/07 09:46:11;;;;;;;0.40;0.00;;;;;;;31.66;31.48;99547.39;126081;1090;103007;-70
2021/08/07 09:49:00;;;;;;;0.40;0.00;;;;;;;32.24;30.05;99546.33;126269;1090;114214;-70
2021/08/07 09:51:30;;;;;;;0.40;0.00;;;;;;;32.88;29.72;99554.50;126411;1090;103015;-70
2021/08/07 09:54:15;;;;;;;0.40;0.00;;;;;;;33.33;31.28;99552.92;126333;1090;114419;-70
2021/08/07 09:56:49;;;;;;;0.40;0.00;;;;;;;33.64;28.21;99553.38;126457;1090;102914;-70
2021/08/07 09:59:19;;;;;;;0.40;0.00;;;;;;;34.19;28.20;99555.05;126244;1090;114257;-71
2021/08/07 10:01:47;;;;;;;0.40;0.00;;;;;;;34.38;28.08;99556.11;126316;1089;102903;-71
2021/08/07 10:04:15;;;;;;;0.40;0.00;;;;;;;34.78;27.08;99553.19;126855;1089;103123;-70
2021/08/07 10:06:44;;;;;;;0.40;0.00;;;;;;;34.83;25.58;99557.02;127500;1089;114130;-70
2021/08/07 10:09:12;;;;;;;0.40;0.00;;;;;;;34.75;25.86;99559.14;126411;1087;103026;-69
2021/08/07 10:11:49;;;;;;;0.40;0.00;;;;;;;34.99;26.68;99550.12;126421;1089;114131;-69
2021/08/07 10:14:16;;;;;;;0.40;0.00;;;;;;;35.49;25.98;99559.61;126449;1090;102890;-70
2021/08/07 10:16:43;;;;;;;0.40;0.00;;;;;;;35.81;26.76;99557.63;126538;1090;102953;-70
2021/08/07 10:19:10;;;;;;;0.40;0.00;;;;;;;36.19;27.11;99555.81;126228;1090;114315;-70
2021/08/07 10:21:38;;;;;;;0.40;0.00;;;;;;;36.58;26.69;99553.67;126450;1090;102903;-70
2021/08/07 10:24:05;;;;;;;0.40;0.00;;;;;;;36.85;25.82;99558.91;126403;1090;114087;-70
2021/08/07 10:26:32;;;;;;;0.40;0.00;;;;;;;36.44;24.68;99552.14;126481;1090;102910;-70
2021/08/07 10:29:03;;;;;;;0.40;0.00;;;;;;;35.63;25.89;99552.89;126421;1089;103070;-70
2021/08/07 10:31:32;;;;;;;0.40;0.00;;;;;;;35.21;27.04;99551.70;126269;1090;113923;-70
2021/08/07 10:34:05;;;;;;;0.40;0.00;;;;;;;35.53;27.09;99547.00;126509;1090;104706;-70
2021/08/07 10:36:34;;;;;;;0.40;0.00;;;;;;;35.48;25.62;99557.91;126443;1090;113929;-70
2021/08/07 10:39:05;;;;;;;0.40;0.00;;;;;;;35.54;26.08;99545.10;126498;1090;103977;-70
2021/08/07 10:41:33;;;;;;;0.40;0.00;;;;;;;36.06;24.91;99542.09;126235;1090;114158;-70
2021/08/07 10:44:02;;;;;;;0.40;0.00;;;;;;;36.38;24.71;99556.69;126461;1090;103396;-69
2021/08/07 10:46:29;;;;;;;0.40;0.00;;;;;;;36.46;25.10;99564.70;126347;1090;103021;-70
2021/08/07 10:48:57;;;;;;;0.40;0.00;;;;;;;36.63;24.69;99550.22;126320;1090;113800;-69
2021/08/07 10:51:24;;;;;;;0.40;0.00;;;;;;;36.61;25.05;99563.47;126484;1089;102990;-69
2021/08/07 10:53:57;;;;;;;0.40;0.00;;;;;;;36.75;24.38;99548.34;126357;1090;114064;-70
2021/08/07 10:56:27;;;;;;;0.40;0.00;;;;;;;37.19;24.63;99555.66;126206;1091;103217;-70
2021/08/07 10:58:59;;;;;;;0.40;0.00;;;;;;;37.67;24.71;99556.64;126365;1090;102875;-70
2021/08/07 11:01:28;;;;;;;0.40;0.00;;;;;;;36.74;24.57;99552.20;126266;1090;114110;-70
2021/08/07 11:04:01;;;;;;;0.40;0.00;;;;;;;35.67;26.96;99558.84;126356;1090;102932;-70
2021/08/07 11:06:37;;;;;;;0.40;0.00;;;;;;;34.78;28.30;99553.19;126400;1090;114189;-70
2021/08/07 11:09:31;;;;;;;0.40;0.00;;;;;;;33.85;28.63;99545.98;126452;1089;103140;-70
2021/08/07 11:12:10;;;;;;;0.40;0.00;;;;;;;32.87;30.71;99550.03;126184;1088;114338;-70
2021/08/07 11:14:42;;;;;;;0.40;0.00;;;;;;;32.07;31.15;99551.30;126427;1089;102988;-70
2021/08/07 11:17:12;;;;;;;0.40;0.00;;;;;;;31.28;32.46;99560.56;126425;1090;104882;-69
2021/08/07 11:19:50;;;;;;;0.40;0.00;;;;;;;30.70;34.36;99553.13;126379;1089;113887;-70
2021/08/07 11:22:37;;;;;;;0.40;0.00;;;;;;;30.17;35.44;99559.56;126492;1089;103007;-71
2021/08/07 11:25:05;;;;;;;0.40;0.00;;;;;;;29.69;37.64;99565.34;126349;1088;113891;-69